sensor_id;sensor_type;location;lat;lon;timestamp;temperature;humidity
4677;DHT22;2352;48.180;11.478;2024-03-25T00:00:36;4.70;72.10
4677;DHT22;2352;48.180;11.478;2024-03-25T00:05:37;4.70;72.10
4677;DHT22;2352;48.180;11.478;2024-03-25T00:10:37;4.80;72.00
4677;DHT22;2352;48.180;11.478;2024-03-25T00:15:38;4.90;71.10
4677;DHT22;2352;48.180;11.478;2024-03-25T00:20:40;4.80;71.80
4677;DHT22;2352;48.180;11.478;2024-03-25T00:25:40;4.80;71.30
4677;DHT22;2352;48.180;11.478;2024-03-25T00:30:41;4.90;71.10
4677;DHT22;2352;48.180;11.478;2024-03-25T00:35:43;4.90;71.40
4677;DHT22;2352;48.180;11.478;2024-03-25T00:40:44;4.90;70.60
4677;DHT22;2352;48.180;11.478;2024-03-25T00:45:45;4.90;70.70
4677;DHT22;2352;48.180;11.478;2024-03-25T00:50:46;4.90;71.20
4677;DHT22;2352;48.180;11.478;2024-03-25T00:55:47;5.00;70.70
4677;DHT22;2352;48.180;11.478;2024-03-25T01:00:47;4.90;70.60
4677;DHT22;2352;48.180;11.478;2024-03-25T01:05:48;4.80;70.80
4677;DHT22;2352;48.180;11.478;2024-03-25T01:10:49;4.90;70.90
4677;DHT22;2352;48.180;11.478;2024-03-25T01:15:50;4.90;71.20
4677;DHT22;2352;48.180;11.478;2024-03-25T01:20:50;5.00;70.90
4677;DHT22;2352;48.180;11.478;2024-03-25T01:25:51;4.90;71.10
4677;DHT22;2352;48.180;11.478;2024-03-25T01:30:52;5.00;70.50
4677;DHT22;2352;48.180;11.478;2024-03-25T01:35:54;4.80;71.00
4677;DHT22;2352;48.180;11.478;2024-03-25T01:41:07;4.90;71.00
4677;DHT22;2352;48.180;11.478;2024-03-25T01:46:09;4.80;70.80
4677;DHT22;2352;48.180;11.478;2024-03-25T01:51:11;4.70;71.10
4677;DHT22;2352;48.180;11.478;2024-03-25T01:56:14;4.70;71.40
4677;DHT22;2352;48.180;11.478;2024-03-25T02:01:16;4.60;71.50
4677;DHT22;2352;48.180;11.478;2024-03-25T02:06:17;4.60;71.40
4677;DHT22;2352;48.180;11.478;2024-03-25T02:11:19;4.60;71.90
4677;DHT22;2352;48.180;11.478;2024-03-25T02:16:20;4.60;71.90
4677;DHT22;2352;48.180;11.478;2024-03-25T02:21:21;4.60;71.50
4677;DHT22;2352;48.180;11.478;2024-03-25T02:26:21;4.50;71.90
4677;DHT22;2352;48.180;11.478;2024-03-25T02:31:24;4.50;71.70
4677;DHT22;2352;48.180;11.478;2024-03-25T02:36:24;4.40;71.90
4677;DHT22;2352;48.180;11.478;2024-03-25T02:41:25;4.60;71.70
4677;DHT22;2352;48.180;11.478;2024-03-25T02:46:27;4.70;71.20
4677;DHT22;2352;48.180;11.478;2024-03-25T02:51:28;4.50;71.30
4677;DHT22;2352;48.180;11.478;2024-03-25T02:56:28;4.50;71.40
4677;DHT22;2352;48.180;11.478;2024-03-25T03:01:29;4.50;71.70
4677;DHT22;2352;48.180;11.478;2024-03-25T03:06:30;4.60;71.40
4677;DHT22;2352;48.180;11.478;2024-03-25T03:11:32;4.60;71.10
4677;DHT22;2352;48.180;11.478;2024-03-25T03:16:32;4.80;70.90
4677;DHT22;2352;48.180;11.478;2024-03-25T03:21:33;4.70;70.70
4677;DHT22;2352;48.180;11.478;2024-03-25T03:26:34;4.80;70.50
4677;DHT22;2352;48.180;11.478;2024-03-25T03:31:36;4.70;70.70
4677;DHT22;2352;48.180;11.478;2024-03-25T03:36:36;4.70;70.50
4677;DHT22;2352;48.180;11.478;2024-03-25T03:41:37;4.70;70.90
4677;DHT22;2352;48.180;11.478;2024-03-25T03:46:38;4.70;70.30
4677;DHT22;2352;48.180;11.478;2024-03-25T03:51:39;4.60;70.60
4677;DHT22;2352;48.180;11.478;2024-03-25T03:56:40;4.50;70.60
4677;DHT22;2352;48.180;11.478;2024-03-25T04:01:40;4.50;70.30
4677;DHT22;2352;48.180;11.478;2024-03-25T04:06:41;4.40;70.40
4677;DHT22;2352;48.180;11.478;2024-03-25T04:11:42;4.30;70.90
4677;DHT22;2352;48.180;11.478;2024-03-25T04:16:43;4.30;70.90
4677;DHT22;2352;48.180;11.478;2024-03-25T04:21:43;4.20;71.00
4677;DHT22;2352;48.180;11.478;2024-03-25T04:26:45;4.30;70.90
4677;DHT22;2352;48.180;11.478;2024-03-25T04:31:46;4.10;71.20
4677;DHT22;2352;48.180;11.478;2024-03-25T04:36:47;4.20;71.00
4677;DHT22;2352;48.180;11.478;2024-03-25T04:41:48;4.20;71.00
4677;DHT22;2352;48.180;11.478;2024-03-25T04:46:49;4.20;70.90
4677;DHT22;2352;48.180;11.478;2024-03-25T04:51:49;4.20;70.90
4677;DHT22;2352;48.180;11.478;2024-03-25T04:56:52;4.30;70.90
4677;DHT22;2352;48.180;11.478;2024-03-25T05:01:53;4.30;70.50
4677;DHT22;2352;48.180;11.478;2024-03-25T05:06:54;4.20;70.80
4677;DHT22;2352;48.180;11.478;2024-03-25T05:11:55;4.10;70.90
4677;DHT22;2352;48.180;11.478;2024-03-25T05:16:55;4.20;70.70
4677;DHT22;2352;48.180;11.478;2024-03-25T05:21:57;4.10;71.00
4677;DHT22;2352;48.180;11.478;2024-03-25T05:26:58;4.10;70.90
4677;DHT22;2352;48.180;11.478;2024-03-25T05:32:00;4.20;70.50
4677;DHT22;2352;48.180;11.478;2024-03-25T05:37:01;4.10;70.60
4677;DHT22;2352;48.180;11.478;2024-03-25T05:42:01;4.00;70.80
4677;DHT22;2352;48.180;11.478;2024-03-25T05:47:03;4.20;70.40
4677;DHT22;2352;48.180;11.478;2024-03-25T05:52:04;4.10;70.60
4677;DHT22;2352;48.180;11.478;2024-03-25T05:57:05;4.20;70.60
4677;DHT22;2352;48.180;11.478;2024-03-25T06:02:06;4.30;70.30
4677;DHT22;2352;48.180;11.478;2024-03-25T06:07:07;4.10;70.60
4677;DHT22;2352;48.180;11.478;2024-03-25T06:12:07;4.30;70.40
4677;DHT22;2352;48.180;11.478;2024-03-25T06:17:09;4.40;70.60
4677;DHT22;2352;48.180;11.478;2024-03-25T06:22:09;4.60;69.80
4677;DHT22;2352;48.180;11.478;2024-03-25T06:27:10;4.50;69.90
4677;DHT22;2352;48.180;11.478;2024-03-25T06:32:11;4.70;71.30
4677;DHT22;2352;48.180;11.478;2024-03-25T06:37:30;5.10;70.80
4677;DHT22;2352;48.180;11.478;2024-03-25T06:42:31;5.20;69.30
4677;DHT22;2352;48.180;11.478;2024-03-25T06:47:32;5.10;68.50
4677;DHT22;2352;48.180;11.478;2024-03-25T06:52:32;5.10;68.50
4677;DHT22;2352;48.180;11.478;2024-03-25T06:57:33;5.20;68.60
4677;DHT22;2352;48.180;11.478;2024-03-25T07:02:34;5.40;68.80
4677;DHT22;2352;48.180;11.478;2024-03-25T07:07:35;5.40;68.00
4677;DHT22;2352;48.180;11.478;2024-03-25T07:12:36;5.30;68.40
4677;DHT22;2352;48.180;11.478;2024-03-25T07:17:37;5.40;68.00
4677;DHT22;2352;48.180;11.478;2024-03-25T07:22:38;5.70;67.60
4677;DHT22;2352;48.180;11.478;2024-03-25T07:27:38;5.80;67.10
4677;DHT22;2352;48.180;11.478;2024-03-25T07:32:39;5.90;66.90
4677;DHT22;2352;48.180;11.478;2024-03-25T07:37:40;6.00;66.00
4677;DHT22;2352;48.180;11.478;2024-03-25T07:42:41;5.90;66.40
4677;DHT22;2352;48.180;11.478;2024-03-25T07:47:42;6.00;65.90
4677;DHT22;2352;48.180;11.478;2024-03-25T07:52:42;6.20;66.20
4677;DHT22;2352;48.180;11.478;2024-03-25T07:57:43;6.40;65.10
4677;DHT22;2352;48.180;11.478;2024-03-25T08:02:44;6.40;65.50
4677;DHT22;2352;48.180;11.478;2024-03-25T08:07:45;6.50;65.50
4677;DHT22;2352;48.180;11.478;2024-03-25T08:12:45;6.80;63.70
4677;DHT22;2352;48.180;11.478;2024-03-25T08:17:46;7.10;63.30
4677;DHT22;2352;48.180;11.478;2024-03-25T08:22:48;7.00;63.20
4677;DHT22;2352;48.180;11.478;2024-03-25T08:27:49;7.40;63.10
4677;DHT22;2352;48.180;11.478;2024-03-25T08:32:50;7.80;63.80
4677;DHT22;2352;48.180;11.478;2024-03-25T08:37:52;8.20;61.50
4677;DHT22;2352;48.180;11.478;2024-03-25T08:42:52;8.20;61.10
4677;DHT22;2352;48.180;11.478;2024-03-25T08:47:53;8.30;60.90
4677;DHT22;2352;48.180;11.478;2024-03-25T08:52:54;8.20;61.10
4677;DHT22;2352;48.180;11.478;2024-03-25T08:57:55;8.20;61.00
4677;DHT22;2352;48.180;11.478;2024-03-25T09:02:55;8.00;60.00
4677;DHT22;2352;48.180;11.478;2024-03-25T09:07:56;8.10;60.70
4677;DHT22;2352;48.180;11.478;2024-03-25T09:12:59;8.30;60.40
4677;DHT22;2352;48.180;11.478;2024-03-25T09:18:00;8.40;58.80
4677;DHT22;2352;48.180;11.478;2024-03-25T09:23:00;8.20;58.80
4677;DHT22;2352;48.180;11.478;2024-03-25T09:28:01;8.20;58.70
4677;DHT22;2352;48.180;11.478;2024-03-25T09:33:03;8.40;58.60
4677;DHT22;2352;48.180;11.478;2024-03-25T09:38:04;8.90;56.30
4677;DHT22;2352;48.180;11.478;2024-03-25T09:43:11;9.20;55.40
4677;DHT22;2352;48.180;11.478;2024-03-25T09:48:14;9.40;56.40
4677;DHT22;2352;48.180;11.478;2024-03-25T09:53:16;9.60;55.20
4677;DHT22;2352;48.180;11.478;2024-03-25T09:58:18;9.50;53.80
4677;DHT22;2352;48.180;11.478;2024-03-25T10:03:20;9.80;53.30
4677;DHT22;2352;48.180;11.478;2024-03-25T10:08:21;10.00;54.00
4677;DHT22;2352;48.180;11.478;2024-03-25T10:13:22;10.20;52.10
4677;DHT22;2352;48.180;11.478;2024-03-25T10:18:24;10.00;52.20
4677;DHT22;2352;48.180;11.478;2024-03-25T10:23:25;10.50;52.80
4677;DHT22;2352;48.180;11.478;2024-03-25T10:28:26;10.60;51.50
4677;DHT22;2352;48.180;11.478;2024-03-25T10:33:27;10.80;49.60
4677;DHT22;2352;48.180;11.478;2024-03-25T10:38:28;11.40;48.30
4677;DHT22;2352;48.180;11.478;2024-03-25T10:43:31;11.90;49.40
4677;DHT22;2352;48.180;11.478;2024-03-25T10:48:35;12.20;47.20
4677;DHT22;2352;48.180;11.478;2024-03-25T10:53:38;12.40;45.90
4677;DHT22;2352;48.180;11.478;2024-03-25T10:58:39;12.60;46.40
4677;DHT22;2352;48.180;11.478;2024-03-25T11:03:41;13.00;47.40
4677;DHT22;2352;48.180;11.478;2024-03-25T11:08:42;12.90;43.70
4677;DHT22;2352;48.180;11.478;2024-03-25T11:13:47;12.80;44.20
4677;DHT22;2352;48.180;11.478;2024-03-25T11:18:51;13.40;46.40
4677;DHT22;2352;48.180;11.478;2024-03-25T11:23:52;13.70;43.20
4677;DHT22;2352;48.180;11.478;2024-03-25T11:28:53;13.50;43.60
4677;DHT22;2352;48.180;11.478;2024-03-25T11:33:54;13.40;42.70
4677;DHT22;2352;48.180;11.478;2024-03-25T11:39:02;13.60;43.70
4677;DHT22;2352;48.180;11.478;2024-03-25T11:44:11;14.00;43.40
4677;DHT22;2352;48.180;11.478;2024-03-25T11:49:14;13.40;43.00
4677;DHT22;2352;48.180;11.478;2024-03-25T11:54:15;13.70;43.70
4677;DHT22;2352;48.180;11.478;2024-03-25T11:59:16;13.50;43.40
4677;DHT22;2352;48.180;11.478;2024-03-25T12:04:18;13.40;44.10
4677;DHT22;2352;48.180;11.478;2024-03-25T12:09:19;14.10;42.60
4677;DHT22;2352;48.180;11.478;2024-03-25T12:14:38;14.40;41.90
4677;DHT22;2352;48.180;11.478;2024-03-25T12:19:39;14.80;41.80
4677;DHT22;2352;48.180;11.478;2024-03-25T12:24:42;15.10;40.80
4677;DHT22;2352;48.180;11.478;2024-03-25T12:29:43;15.20;41.50
4677;DHT22;2352;48.180;11.478;2024-03-25T12:34:44;15.60;42.50
4677;DHT22;2352;48.180;11.478;2024-03-25T12:39:48;15.80;40.50
4677;DHT22;2352;48.180;11.478;2024-03-25T12:44:49;15.70;40.60
4677;DHT22;2352;48.180;11.478;2024-03-25T12:49:50;16.00;39.20
4677;DHT22;2352;48.180;11.478;2024-03-25T12:54:51;16.20;40.30
4677;DHT22;2352;48.180;11.478;2024-03-25T12:59:52;16.60;40.20
4677;DHT22;2352;48.180;11.478;2024-03-25T13:04:52;15.50;37.90
4677;DHT22;2352;48.180;11.478;2024-03-25T13:09:54;15.60;39.70
4677;DHT22;2352;48.180;11.478;2024-03-25T13:14:55;16.20;38.60
4677;DHT22;2352;48.180;11.478;2024-03-25T13:19:56;16.60;38.60
4677;DHT22;2352;48.180;11.478;2024-03-25T13:24:57;16.90;40.30
4677;DHT22;2352;48.180;11.478;2024-03-25T13:29:58;17.60;39.70
4677;DHT22;2352;48.180;11.478;2024-03-25T13:34:59;18.20;39.80
4677;DHT22;2352;48.180;11.478;2024-03-25T13:40:02;18.60;38.30
4677;DHT22;2352;48.180;11.478;2024-03-25T13:45:04;18.80;37.90
4677;DHT22;2352;48.180;11.478;2024-03-25T13:50:07;18.70;39.10
4677;DHT22;2352;48.180;11.478;2024-03-25T13:55:08;18.90;38.30
4677;DHT22;2352;48.180;11.478;2024-03-25T14:00:09;19.30;38.20
4677;DHT22;2352;48.180;11.478;2024-03-25T14:05:11;19.50;37.70
4677;DHT22;2352;48.180;11.478;2024-03-25T14:10:12;19.40;37.00
4677;DHT22;2352;48.180;11.478;2024-03-25T14:15:13;19.30;35.80
4677;DHT22;2352;48.180;11.478;2024-03-25T14:20:14;19.50;35.60
4677;DHT22;2352;48.180;11.478;2024-03-25T14:25:16;19.60;35.60
4677;DHT22;2352;48.180;11.478;2024-03-25T14:30:16;19.70;36.00
4677;DHT22;2352;48.180;11.478;2024-03-25T14:35:17;19.60;35.40
4677;DHT22;2352;48.180;11.478;2024-03-25T14:40:18;19.60;34.30
4677;DHT22;2352;48.180;11.478;2024-03-25T14:45:19;19.80;36.50
4677;DHT22;2352;48.180;11.478;2024-03-25T14:50:20;19.50;35.20
4677;DHT22;2352;48.180;11.478;2024-03-25T14:55:21;19.50;36.70
4677;DHT22;2352;48.180;11.478;2024-03-25T15:00:22;19.50;36.30
4677;DHT22;2352;48.180;11.478;2024-03-25T15:05:24;19.40;36.60
4677;DHT22;2352;48.180;11.478;2024-03-25T15:10:26;19.00;36.90
4677;DHT22;2352;48.180;11.478;2024-03-25T15:15:27;18.60;37.20
4677;DHT22;2352;48.180;11.478;2024-03-25T15:20:28;18.10;37.10
4677;DHT22;2352;48.180;11.478;2024-03-25T15:25:30;18.40;37.90
4677;DHT22;2352;48.180;11.478;2024-03-25T15:30:31;18.00;37.00
4677;DHT22;2352;48.180;11.478;2024-03-25T15:35:31;18.30;37.00
4677;DHT22;2352;48.180;11.478;2024-03-25T15:40:32;18.00;38.10
4677;DHT22;2352;48.180;11.478;2024-03-25T15:45:33;17.50;37.80
4677;DHT22;2352;48.180;11.478;2024-03-25T15:50:34;17.40;38.70
4677;DHT22;2352;48.180;11.478;2024-03-25T15:55:35;16.20;39.20
4677;DHT22;2352;48.180;11.478;2024-03-25T16:00:36;16.60;39.50
4677;DHT22;2352;48.180;11.478;2024-03-25T16:05:37;16.60;39.80
4677;DHT22;2352;48.180;11.478;2024-03-25T16:10:40;16.30;39.00
4677;DHT22;2352;48.180;11.478;2024-03-25T16:15:41;16.00;41.10
4677;DHT22;2352;48.180;11.478;2024-03-25T16:20:42;16.00;39.40
4677;DHT22;2352;48.180;11.478;2024-03-25T16:25:43;15.90;40.40
4677;DHT22;2352;48.180;11.478;2024-03-25T16:30:44;15.70;39.70
4677;DHT22;2352;48.180;11.478;2024-03-25T16:35:46;15.20;40.60
4677;DHT22;2352;48.180;11.478;2024-03-25T16:40:46;15.20;41.90
4677;DHT22;2352;48.180;11.478;2024-03-25T16:45:47;15.40;41.80
4677;DHT22;2352;48.180;11.478;2024-03-25T16:50:48;15.00;41.00
4677;DHT22;2352;48.180;11.478;2024-03-25T16:55:49;14.60;41.90
4677;DHT22;2352;48.180;11.478;2024-03-25T17:00:50;14.60;42.70
4677;DHT22;2352;48.180;11.478;2024-03-25T17:05:52;14.40;42.20
4677;DHT22;2352;48.180;11.478;2024-03-25T17:10:53;14.30;43.60
4677;DHT22;2352;48.180;11.478;2024-03-25T17:15:54;14.00;42.90
4677;DHT22;2352;48.180;11.478;2024-03-25T17:20:59;13.90;43.50
4677;DHT22;2352;48.180;11.478;2024-03-25T17:26:04;13.70;44.40
4677;DHT22;2352;48.180;11.478;2024-03-25T17:31:06;13.50;44.40
4677;DHT22;2352;48.180;11.478;2024-03-25T17:36:07;13.10;44.80
4677;DHT22;2352;48.180;11.478;2024-03-25T17:41:08;13.10;46.00
4677;DHT22;2352;48.180;11.478;2024-03-25T17:46:09;12.90;46.20
4677;DHT22;2352;48.180;11.478;2024-03-25T17:51:10;12.50;46.50
4677;DHT22;2352;48.180;11.478;2024-03-25T17:56:11;12.60;47.30
4677;DHT22;2352;48.180;11.478;2024-03-25T18:01:12;12.40;46.70
4677;DHT22;2352;48.180;11.478;2024-03-25T18:06:12;12.20;46.90
4677;DHT22;2352;48.180;11.478;2024-03-25T18:11:13;12.00;47.70
4677;DHT22;2352;48.180;11.478;2024-03-25T18:16:14;12.00;48.00
4677;DHT22;2352;48.180;11.478;2024-03-25T18:21:15;12.00;47.90
4677;DHT22;2352;48.180;11.478;2024-03-25T18:26:16;11.90;47.80
4677;DHT22;2352;48.180;11.478;2024-03-25T18:31:16;11.70;48.20
4677;DHT22;2352;48.180;11.478;2024-03-25T18:36:17;11.80;48.60
4677;DHT22;2352;48.180;11.478;2024-03-25T18:41:18;11.70;48.40
4677;DHT22;2352;48.180;11.478;2024-03-25T18:46:19;11.10;49.20
4677;DHT22;2352;48.180;11.478;2024-03-25T18:51:20;11.40;49.40
4677;DHT22;2352;48.180;11.478;2024-03-25T18:56:21;11.40;49.20
4677;DHT22;2352;48.180;11.478;2024-03-25T19:01:21;11.30;49.40
4677;DHT22;2352;48.180;11.478;2024-03-25T19:06:23;10.90;50.30
4677;DHT22;2352;48.180;11.478;2024-03-25T19:11:23;10.80;50.30
4677;DHT22;2352;48.180;11.478;2024-03-25T19:16:24;10.50;50.50
4677;DHT22;2352;48.180;11.478;2024-03-25T19:21:25;10.40;50.70
4677;DHT22;2352;48.180;11.478;2024-03-25T19:26:26;10.40;50.40
4677;DHT22;2352;48.180;11.478;2024-03-25T19:31:26;10.50;50.50
4677;DHT22;2352;48.180;11.478;2024-03-25T19:36:27;10.40;50.70
4677;DHT22;2352;48.180;11.478;2024-03-25T19:41:28;10.40;50.90
4677;DHT22;2352;48.180;11.478;2024-03-25T19:46:31;10.30;51.40
4677;DHT22;2352;48.180;11.478;2024-03-25T19:51:31;9.90;51.30
4677;DHT22;2352;48.180;11.478;2024-03-25T19:56:32;9.70;52.10
4677;DHT22;2352;48.180;11.478;2024-03-25T20:01:33;10.00;51.90
4677;DHT22;2352;48.180;11.478;2024-03-25T20:06:34;9.90;52.20
4677;DHT22;2352;48.180;11.478;2024-03-25T20:11:36;9.70;52.00
4677;DHT22;2352;48.180;11.478;2024-03-25T20:16:38;9.90;51.80
4677;DHT22;2352;48.180;11.478;2024-03-25T20:21:39;9.80;52.00
4677;DHT22;2352;48.180;11.478;2024-03-25T20:26:44;9.70;52.60
4677;DHT22;2352;48.180;11.478;2024-03-25T20:31:45;9.60;52.80
4677;DHT22;2352;48.180;11.478;2024-03-25T20:36:46;9.60;53.20
4677;DHT22;2352;48.180;11.478;2024-03-25T20:41:46;9.40;52.90
4677;DHT22;2352;48.180;11.478;2024-03-25T20:46:47;9.40;53.50
4677;DHT22;2352;48.180;11.478;2024-03-25T20:51:48;9.40;53.70
4677;DHT22;2352;48.180;11.478;2024-03-25T20:56:48;9.40;53.50
4677;DHT22;2352;48.180;11.478;2024-03-25T21:01:50;9.40;53.80
4677;DHT22;2352;48.180;11.478;2024-03-25T21:06:50;9.20;54.00
4677;DHT22;2352;48.180;11.478;2024-03-25T21:11:51;9.20;54.30
4677;DHT22;2352;48.180;11.478;2024-03-25T21:16:52;9.20;54.10
4677;DHT22;2352;48.180;11.478;2024-03-25T21:21:53;9.30;54.00
4677;DHT22;2352;48.180;11.478;2024-03-25T21:26:54;9.20;54.20
4677;DHT22;2352;48.180;11.478;2024-03-25T21:31:55;9.00;54.40
4677;DHT22;2352;48.180;11.478;2024-03-25T21:36:56;9.00;54.50
4677;DHT22;2352;48.180;11.478;2024-03-25T21:41:56;8.90;55.00
4677;DHT22;2352;48.180;11.478;2024-03-25T21:46:57;8.60;55.10
4677;DHT22;2352;48.180;11.478;2024-03-25T21:51:58;8.50;55.50
4677;DHT22;2352;48.180;11.478;2024-03-25T21:56:59;8.60;55.20
4677;DHT22;2352;48.180;11.478;2024-03-25T22:01:59;8.40;55.60
4677;DHT22;2352;48.180;11.478;2024-03-25T22:07:00;8.50;55.80
4677;DHT22;2352;48.180;11.478;2024-03-25T22:12:01;8.50;55.90
4677;DHT22;2352;48.180;11.478;2024-03-25T22:17:02;8.30;56.40
4677;DHT22;2352;48.180;11.478;2024-03-25T22:22:03;8.40;56.20
4677;DHT22;2352;48.180;11.478;2024-03-25T22:27:04;8.40;56.00
4677;DHT22;2352;48.180;11.478;2024-03-25T22:32:05;8.40;55.90
4677;DHT22;2352;48.180;11.478;2024-03-25T22:37:06;8.30;56.10
4677;DHT22;2352;48.180;11.478;2024-03-25T22:42:08;8.20;56.40
4677;DHT22;2352;48.180;11.478;2024-03-25T22:47:09;8.20;56.40
4677;DHT22;2352;48.180;11.478;2024-03-25T22:52:10;8.20;56.80
4677;DHT22;2352;48.180;11.478;2024-03-25T22:57:11;8.20;56.70
4677;DHT22;2352;48.180;11.478;2024-03-25T23:02:12;7.80;57.30
4677;DHT22;2352;48.180;11.478;2024-03-25T23:07:13;7.90;57.20
4677;DHT22;2352;48.180;11.478;2024-03-25T23:12:14;7.80;57.40
4677;DHT22;2352;48.180;11.478;2024-03-25T23:17:15;7.90;57.30
4677;DHT22;2352;48.180;11.478;2024-03-25T23:22:16;7.80;57.50
4677;DHT22;2352;48.180;11.478;2024-03-25T23:27:17;7.90;57.50
4677;DHT22;2352;48.180;11.478;2024-03-25T23:32:17;7.90;57.40
4677;DHT22;2352;48.180;11.478;2024-03-25T23:37:18;7.70;57.50
4677;DHT22;2352;48.180;11.478;2024-03-25T23:42:19;7.70;57.80
4677;DHT22;2352;48.180;11.478;2024-03-25T23:47:20;7.70;58.00
4677;DHT22;2352;48.180;11.478;2024-03-25T23:52:21;7.60;57.90
4677;DHT22;2352;48.180;11.478;2024-03-25T23:57:22;7.60;58.00
